createdAt,value
2018-03-17T00:02:02.244Z,97950.08
2018-03-17T00:04:34.153Z,97951.37
2018-03-17T00:07:04.012Z,97945.89
2018-03-17T00:09:32.443Z,97947.27
2018-03-17T00:12:00.802Z,97946.73
2018-03-17T00:14:30.068Z,97949.88
2018-03-17T00:16:58.442Z,97943.78
2018-03-17T00:19:27.398Z,97948.57
2018-03-17T00:21:56.040Z,97949.73
2018-03-17T00:24:25.132Z,97949.91
2018-03-17T00:26:56.600Z,97958.25
2018-03-17T00:29:25.863Z,97955.47
2018-03-17T00:31:58.051Z,97963.09
2018-03-17T00:34:26.448Z,97965.81
2018-03-17T00:36:56.237Z,97961.52
2018-03-17T00:39:24.844Z,97966.23
2018-03-17T00:41:54.898Z,97966.78
2018-03-17T00:44:24.983Z,97964.48
2018-03-17T00:46:56.390Z,97968.08
2018-03-17T00:49:24.897Z,97963.92
2018-03-17T00:51:53.965Z,97965.64
2018-03-17T00:54:23.565Z,97964.73
2018-03-17T00:56:52.736Z,97960.86
2018-03-17T00:59:22.796Z,97959.91
2018-03-17T01:01:52.118Z,97967.21
2018-03-17T01:04:20.461Z,97954.34
2018-03-17T01:06:50.004Z,97965.19
2018-03-17T01:09:19.240Z,97955.14
2018-03-17T01:11:48.483Z,97953.63
2018-03-17T01:14:17.779Z,97955.83
2018-03-17T01:16:47.685Z,97958.19
2018-03-17T01:19:17.618Z,97948.63
2018-03-17T01:21:46.672Z,97944.15
2018-03-17T01:24:15.038Z,97951.65
2018-03-17T01:26:44.269Z,97956.47
2018-03-17T01:29:13.490Z,97951.42
2018-03-17T01:31:41.878Z,97960.89
2018-03-17T01:34:13.516Z,97968.07
2018-03-17T01:36:42.876Z,97960.76
2018-03-17T01:39:11.255Z,97962.97
2018-03-17T01:41:39.644Z,97954.67
2018-03-17T01:44:09.084Z,97955.08
2018-03-17T01:46:39.321Z,97955.74
2018-03-17T01:49:09.075Z,97958.59
2018-03-17T01:51:37.986Z,97955.74
2018-03-17T01:54:19.439Z,97947.84
2018-03-17T01:56:47.881Z,97945.94
2018-03-17T01:59:17.399Z,97936.16
2018-03-17T02:01:47.857Z,97947.68
2018-03-17T02:04:17.832Z,97943.81
2018-03-17T02:06:48.917Z,97940.25
2018-03-17T02:09:17.627Z,97930.75
2018-03-17T02:11:45.971Z,97932.78
2018-03-17T02:14:16.772Z,97930.75
2018-03-17T02:16:46.503Z,97928.34
2018-03-17T02:19:15.758Z,97924.92
2018-03-17T02:21:44.101Z,97921.45
2018-03-17T02:24:12.561Z,97922.91
2018-03-17T02:26:42.695Z,97920.33
2018-03-17T02:29:11.125Z,97916.10
2018-03-17T02:31:39.467Z,97918.13
2018-03-17T02:34:07.888Z,97920.72
2018-03-17T02:36:36.625Z,97925.23
2018-03-17T02:39:06.966Z,97928.94
2018-03-17T02:41:35.420Z,97924.42
2018-03-17T02:44:05.234Z,97924.30
2018-03-17T02:46:34.354Z,97928.98
2018-03-17T02:49:02.761Z,97926.09
2018-03-17T02:51:33.563Z,97934.05
2018-03-17T02:54:02.638Z,97937.20
2018-03-17T02:56:32.965Z,97931.06
2018-03-17T02:59:02.799Z,97934.38
2018-03-17T03:01:31.151Z,97931.41
2018-03-17T03:03:59.561Z,97933.63
2018-03-17T03:06:29.557Z,97931.73
2018-03-17T03:08:58.236Z,97924.20
2018-03-17T03:11:28.940Z,97922.76
2018-03-17T03:13:58.434Z,97920.78
2018-03-17T03:16:28.605Z,97914.88
2018-03-17T03:18:56.983Z,97914.81
2018-03-17T03:21:26.066Z,97910.69
2018-03-17T03:23:55.073Z,97910.84
2018-03-17T03:26:24.258Z,97909.71
2018-03-17T03:28:53.275Z,97910.59
2018-03-17T03:31:24.678Z,97912.41
2018-03-17T03:33:54.339Z,97906.30
2018-03-17T03:36:24.584Z,97905.72
2018-03-17T03:38:53.264Z,97917.64
2018-03-17T03:41:21.756Z,97908.45
2018-03-17T03:43:51.119Z,97914.00
2018-03-17T03:46:21.573Z,97913.05
2018-03-17T03:48:50.720Z,97905.75
2018-03-17T03:51:19.078Z,97906.16
2018-03-17T03:53:49.271Z,97902.56
2018-03-17T03:56:17.627Z,97906.88
2018-03-17T03:58:47.236Z,97916.50
2018-03-17T04:01:16.691Z,97914.41
2018-03-17T04:03:45.921Z,97913.80
2018-03-17T04:06:15.171Z,97911.50
2018-03-17T04:08:44.416Z,97915.61
2018-03-17T04:11:12.882Z,97916.92
2018-03-17T04:13:43.748Z,97916.80
2018-03-17T04:16:13.778Z,97913.95
2018-03-17T04:18:42.196Z,97911.68
2018-03-17T04:21:12.058Z,97904.87
2018-03-17T04:23:42.539Z,97902.44
2018-03-17T04:26:12.238Z,97905.97
2018-03-17T04:28:41.370Z,97903.15
2018-03-17T04:31:10.020Z,97903.25
2018-03-17T04:33:39.432Z,97907.69
2018-03-17T04:36:11.203Z,97908.67
2018-03-17T04:38:41.327Z,97907.08
2018-03-17T04:41:10.602Z,97901.63
2018-03-17T04:43:39.218Z,97906.92
2018-03-17T04:46:09.026Z,97909.49
2018-03-17T04:48:38.546Z,97906.86
2018-03-17T04:51:07.817Z,97914.97
2018-03-17T04:53:36.322Z,97913.36
2018-03-17T04:56:04.662Z,97912.02
2018-03-17T04:58:33.845Z,97917.66
2018-03-17T05:01:03.770Z,97919.53
2018-03-17T05:03:32.155Z,97917.52
2018-03-17T05:06:01.371Z,97914.10
2018-03-17T05:08:30.577Z,97915.13
2018-03-17T05:10:59.814Z,97907.46
2018-03-17T05:13:28.244Z,97907.46
2018-03-17T05:15:56.648Z,97909.66
2018-03-17T05:18:25.438Z,97914.25
2018-03-17T05:20:54.443Z,97910.31
2018-03-17T05:23:24.005Z,97917.57
2018-03-17T05:25:52.696Z,97908.53
2018-03-17T05:28:21.907Z,97911.87
2018-03-17T05:30:50.275Z,97906.13
2018-03-17T05:33:19.354Z,97906.64
2018-03-17T05:35:51.057Z,97907.19
2018-03-17T05:38:20.350Z,97912.77
2018-03-17T05:40:48.754Z,97912.11
2018-03-17T05:43:19.310Z,97910.44
2018-03-17T05:45:49.334Z,97900.79
2018-03-17T05:48:18.584Z,97901.36
2018-03-17T05:50:48.257Z,97902.86
2018-03-17T05:53:18.903Z,97902.30
2018-03-17T05:55:48.082Z,97902.10
2018-03-17T05:58:16.449Z,97905.36
2018-03-17T06:00:44.884Z,97894.37
2018-03-17T06:03:13.342Z,97899.59
2018-03-17T06:05:42.636Z,97900.62
2018-03-17T06:08:13.144Z,97905.30
2018-03-17T06:10:41.784Z,97905.25
2018-03-17T06:13:11.598Z,97908.61
2018-03-17T06:15:40.222Z,97908.00
2018-03-17T06:18:10.699Z,97909.60
2018-03-17T06:20:39.885Z,97912.21
2018-03-17T06:23:11.638Z,97910.08
2018-03-17T06:25:41.010Z,97903.88
2018-03-17T06:28:09.411Z,97909.83
2018-03-17T06:30:38.561Z,97910.75
2018-03-17T06:33:09.178Z,97898.61
2018-03-17T06:35:39.296Z,97905.13
2018-03-17T06:38:09.034Z,97901.62
2018-03-17T06:40:39.159Z,97905.86
2018-03-17T06:43:07.672Z,97911.24
2018-03-17T06:45:36.922Z,97911.92
2018-03-17T06:48:06.189Z,97903.42
2018-03-17T06:50:34.608Z,97908.25
2018-03-17T06:53:03.015Z,97900.34
2018-03-17T06:55:32.011Z,97906.35
2018-03-17T06:58:00.868Z,97905.41
2018-03-17T07:00:30.803Z,97900.70
2018-03-17T07:02:59.226Z,97906.88
2018-03-17T07:05:29.886Z,97898.89
2018-03-17T07:07:59.151Z,97903.44
2018-03-17T07:10:28.339Z,97903.63
2018-03-17T07:12:57.912Z,97897.91
2018-03-17T07:15:28.341Z,97904.42
2018-03-17T07:17:56.796Z,97900.38
2018-03-17T07:20:26.380Z,97902.05
2018-03-17T07:22:54.880Z,97892.02
2018-03-17T07:25:23.732Z,97892.46
2018-03-17T07:27:54.666Z,97881.39
2018-03-17T07:30:23.889Z,97874.56
2018-03-17T07:32:53.404Z,97877.43
2018-03-17T07:35:23.589Z,97877.58
2018-03-17T07:37:55.319Z,97879.89
2018-03-17T07:40:23.693Z,97874.77
2018-03-17T07:42:52.961Z,97876.70
2018-03-17T07:45:21.336Z,97875.30
2018-03-17T07:47:49.656Z,97878.51
2018-03-17T07:50:18.489Z,97879.44
2018-03-17T07:52:46.951Z,97875.33
2018-03-17T07:55:16.232Z,97867.77
2018-03-17T07:57:45.948Z,97871.86
2018-03-17T08:00:16.912Z,97883.62
2018-03-17T08:02:45.530Z,97877.78
2018-03-17T08:05:15.752Z,97894.32
2018-03-17T08:07:45.382Z,97888.97
2018-03-17T08:10:14.060Z,97884.66
2018-03-17T08:12:43.140Z,97883.19
2018-03-17T08:15:11.691Z,97879.84
2018-03-17T08:17:42.672Z,97892.13
2018-03-17T08:20:13.845Z,97894.88
2018-03-17T08:22:44.263Z,97892.75
2018-03-17T08:25:14.503Z,97895.50
2018-03-17T08:27:44.985Z,97890.55
2018-03-17T08:30:14.752Z,97898.78
2018-03-17T08:32:43.154Z,97889.16
2018-03-17T08:35:11.752Z,97898.88
2018-03-17T08:37:41.108Z,97897.84
2018-03-17T08:40:09.547Z,97895.45
2018-03-17T08:42:38.492Z,97887.59
2018-03-17T08:45:08.323Z,97889.16
2018-03-17T08:47:38.306Z,97887.50
2018-03-17T08:50:06.809Z,97889.89
2018-03-17T08:52:35.212Z,97897.73
2018-03-17T08:55:04.977Z,97892.91
2018-03-17T08:57:35.120Z,97882.63
2018-03-17T09:00:03.484Z,97896.05
2018-03-17T09:02:31.813Z,97891.78
2018-03-17T09:05:01.481Z,97891.27
2018-03-17T09:07:31.344Z,97876.47
2018-03-17T09:10:00.367Z,97876.99
2018-03-17T09:12:28.842Z,97880.14
2018-03-17T09:14:58.362Z,97873.61
2018-03-17T09:17:26.768Z,97876.70
2018-03-17T09:19:57.763Z,97882.09
2018-03-17T09:22:28.940Z,97884.59
2018-03-17T09:24:58.451Z,97887.06
2018-03-17T09:27:33.522Z,97902.73
2018-03-17T09:30:02.970Z,97881.45
2018-03-17T09:32:32.912Z,97887.09
2018-03-17T09:35:03.062Z,97876.47
2018-03-17T09:37:32.159Z,97889.58
2018-03-17T09:40:01.128Z,97886.80
2018-03-17T09:42:30.014Z,97887.06
2018-03-17T09:44:59.225Z,97894.70
2018-03-17T09:47:27.673Z,97888.94
2018-03-17T09:49:57.145Z,97896.39
2018-03-17T09:52:26.400Z,97900.69
2018-03-17T09:54:56.022Z,97888.30
2018-03-17T09:57:30.867Z,97900.89
2018-03-17T10:00:02.253Z,97896.97
2018-03-17T10:02:31.482Z,97905.51
2018-03-17T10:05:00.000Z,97896.33
2018-03-17T10:07:29.456Z,97888.66
2018-03-17T10:09:58.413Z,97893.84
2018-03-17T10:12:27.576Z,97896.48
2018-03-17T10:14:55.973Z,97901.87
2018-03-17T10:17:25.245Z,97898.11
2018-03-17T10:19:53.617Z,97897.28
2018-03-17T10:22:22.762Z,97900.82
2018-03-17T10:24:52.154Z,97911.73
2018-03-17T10:27:21.440Z,97893.25
2018-03-17T10:29:53.545Z,97900.81
2018-03-17T10:32:21.880Z,97900.63
2018-03-17T10:34:50.250Z,97907.70
2018-03-17T10:37:18.657Z,97903.20
2018-03-17T10:39:48.480Z,97899.91
2018-03-17T10:42:20.999Z,97897.68
2018-03-17T10:44:49.837Z,97891.07
2018-03-17T10:47:19.009Z,97901.87
2018-03-17T10:49:47.373Z,97895.36
2018-03-17T10:52:16.739Z,97889.02
2018-03-17T10:54:46.009Z,97889.77
2018-03-17T10:57:15.042Z,97891.45
2018-03-17T10:59:45.729Z,97886.77
2018-03-17T11:02:15.023Z,97893.25
2018-03-17T11:04:44.854Z,97897.20
2018-03-17T11:07:14.114Z,97895.73
2018-03-17T11:09:43.422Z,97903.38
2018-03-17T11:12:12.365Z,97882.40
2018-03-17T11:14:41.628Z,97885.02
2018-03-17T11:17:10.027Z,97894.50
2018-03-17T11:19:39.178Z,97907.02
2018-03-17T11:22:09.612Z,97901.02
2018-03-17T11:24:39.405Z,97904.75
2018-03-17T11:27:08.240Z,97905.20
2018-03-17T11:29:37.614Z,97905.87
2018-03-17T11:32:06.200Z,97891.45
2018-03-17T11:34:38.854Z,97896.91
2018-03-17T11:37:07.294Z,97893.95
2018-03-17T11:39:37.447Z,97882.86
2018-03-17T11:42:05.822Z,97879.74
2018-03-17T11:44:35.103Z,97884.39
2018-03-17T11:47:04.777Z,97884.05
2018-03-17T11:49:33.230Z,97881.43
2018-03-17T11:52:01.662Z,97880.01
2018-03-17T11:54:31.638Z,97878.56
2018-03-17T11:57:00.947Z,97888.27
2018-03-17T11:59:32.670Z,97886.11
2018-03-17T12:02:01.852Z,97875.09
2018-03-17T12:04:31.027Z,97890.56
2018-03-17T12:07:00.849Z,97879.59
2018-03-17T12:09:30.170Z,97887.44
2018-03-17T12:11:59.715Z,97889.42
2018-03-17T12:14:28.379Z,97885.91
2018-03-17T12:16:56.761Z,97885.25
2018-03-17T12:19:25.162Z,97880.44
2018-03-17T12:21:54.492Z,97882.73
2018-03-17T12:24:23.239Z,97881.78
2018-03-17T12:26:52.780Z,97875.78
2018-03-17T12:29:21.593Z,97881.09
2018-03-17T12:31:50.491Z,97880.53
2018-03-17T12:34:19.568Z,97875.48
2018-03-17T12:36:48.928Z,97878.16
2018-03-17T12:39:17.382Z,97880.91
2018-03-17T12:41:46.297Z,97878.72
2018-03-17T12:44:15.332Z,97869.03
2018-03-17T12:46:44.625Z,97866.56
2018-03-17T12:49:12.959Z,97859.03
2018-03-17T12:51:41.319Z,97857.17
2018-03-17T12:54:10.782Z,97857.91
2018-03-17T12:56:39.188Z,97845.42
2018-03-17T12:59:08.044Z,97843.91
2018-03-17T13:01:36.412Z,97843.67
2018-03-17T13:04:06.627Z,97851.14
2018-03-17T13:06:36.291Z,97849.13
2018-03-17T13:09:06.424Z,97842.13
2018-03-17T13:11:35.490Z,97843.30
2018-03-17T13:14:10.868Z,97839.84
2018-03-17T13:16:39.490Z,97860.66
2018-03-17T13:19:19.728Z,97861.29
2018-03-17T13:21:50.654Z,97855.52
2018-03-17T13:24:24.861Z,97858.04
2018-03-17T13:29:39.668Z,97862.05
2018-03-17T13:32:19.863Z,97862.02
2018-03-17T13:34:49.496Z,97867.99
2018-03-17T13:37:34.860Z,97870.11
2018-03-17T13:40:03.260Z,97871.53
2018-03-17T13:42:33.041Z,97873.28
2018-03-17T13:45:01.792Z,97871.98
2018-03-17T13:47:32.049Z,97865.38
2018-03-17T13:50:00.720Z,97874.77
2018-03-17T13:52:30.946Z,97869.61
2018-03-17T13:55:00.982Z,97874.30
2018-03-17T13:57:31.937Z,97858.84
2018-03-17T14:00:00.746Z,97855.41
2018-03-17T14:02:29.974Z,97856.13
2018-03-17T14:04:58.429Z,97858.95
2018-03-17T14:07:28.912Z,97855.62
2018-03-17T14:09:57.275Z,97854.45
2018-03-17T14:12:28.080Z,97867.66
2018-03-17T14:14:58.249Z,97862.81
2018-03-17T14:17:27.172Z,97866.04
2018-03-17T14:19:56.388Z,97864.80
2018-03-17T14:22:25.790Z,97865.19
2018-03-17T14:24:55.275Z,97861.91
2018-03-17T14:27:24.480Z,97868.16
2018-03-17T14:29:53.595Z,97872.19
2018-03-17T14:32:23.549Z,97873.01
2018-03-17T14:34:51.883Z,97880.33
2018-03-17T14:37:21.177Z,97872.69
2018-03-17T14:39:50.409Z,97892.99
2018-03-17T14:42:20.763Z,97879.48
2018-03-17T14:44:49.129Z,97883.37
2018-03-17T14:47:18.066Z,97888.50
2018-03-17T14:49:48.891Z,97884.13
2018-03-17T14:52:18.643Z,97890.08
2018-03-17T14:54:48.417Z,97883.97
2018-03-17T14:57:17.259Z,97890.11
2018-03-17T14:59:46.283Z,97892.86
2018-03-17T15:02:14.991Z,97883.21
2018-03-17T15:04:45.589Z,97890.30
2018-03-17T15:07:14.011Z,97886.80
2018-03-17T15:09:45.400Z,97890.37
2018-03-17T15:12:14.127Z,97888.16
2018-03-17T15:14:42.531Z,97882.84
2018-03-17T15:17:10.912Z,97882.69
2018-03-17T15:19:41.176Z,97892.30
2018-03-17T15:22:10.471Z,97895.91
2018-03-17T15:24:39.515Z,97893.81
2018-03-17T15:27:08.523Z,97901.30
2018-03-17T15:29:37.650Z,97898.88
2018-03-17T15:32:06.031Z,97899.67
2018-03-17T15:34:34.861Z,97894.86
2018-03-17T15:37:05.600Z,97905.92
2018-03-17T15:39:35.554Z,97898.89
2018-03-17T15:42:04.159Z,97895.39
2018-03-17T15:44:32.486Z,97903.05
2018-03-17T15:47:01.704Z,97905.90
2018-03-17T15:49:31.251Z,97904.70
2018-03-17T15:52:01.264Z,97901.38
2018-03-17T15:54:31.827Z,97907.76
2018-03-17T15:57:01.220Z,97901.02
2018-03-17T15:59:30.059Z,97903.81
2018-03-17T16:02:00.213Z,97907.73
2018-03-17T16:04:29.158Z,97903.36
2018-03-17T16:06:59.438Z,97908.42
2018-03-17T16:09:28.914Z,97907.27
2018-03-17T16:11:57.330Z,97903.58
2018-03-17T16:14:25.839Z,97915.15
2018-03-17T16:16:54.918Z,97906.08
2018-03-17T16:19:24.203Z,97907.23
2018-03-17T16:21:52.638Z,97910.33
2018-03-17T16:24:21.017Z,97906.12
2018-03-17T16:26:49.855Z,97904.09
2018-03-17T16:29:19.805Z,97904.42
2018-03-17T16:31:48.263Z,97911.87
2018-03-17T16:34:17.458Z,97901.69
2018-03-17T16:36:45.872Z,97898.91
2018-03-17T16:39:16.627Z,97903.45
2018-03-17T16:41:46.345Z,97888.18
2018-03-17T16:44:16.319Z,97893.52
2018-03-17T16:46:45.088Z,97890.03
2018-03-17T16:49:13.398Z,97898.81
2018-03-17T16:51:42.442Z,97905.08
2018-03-17T16:54:11.196Z,97901.24
2018-03-17T16:56:40.354Z,97915.66
2018-03-17T16:59:08.923Z,97912.36
2018-03-17T17:01:39.777Z,97916.46
2018-03-17T17:04:08.660Z,97931.50
2018-03-17T17:06:38.236Z,97920.97
2018-03-17T17:09:06.706Z,97940.44
2018-03-17T17:11:36.223Z,97935.28
2018-03-17T17:14:04.578Z,97932.88
2018-03-17T17:16:34.232Z,97932.05
2018-03-17T17:19:03.203Z,97928.91
2018-03-17T17:21:33.006Z,97931.78
2018-03-17T17:24:03.882Z,97932.40
2018-03-17T17:26:33.239Z,97931.92
2018-03-17T17:29:03.205Z,97928.31
2018-03-17T17:31:32.480Z,97925.25
2018-03-17T17:34:01.379Z,97927.28
2018-03-17T17:36:31.730Z,97918.83
2018-03-17T17:39:00.732Z,97921.29
2018-03-17T17:41:29.578Z,97919.98
2018-03-17T17:43:58.756Z,97907.37
2018-03-17T17:46:28.147Z,97921.83
2018-03-17T17:48:57.904Z,97928.45
2018-03-17T17:51:26.651Z,97922.28
2018-03-17T17:53:56.009Z,97931.05
2018-03-17T17:56:25.603Z,97929.70
2018-03-17T17:58:53.935Z,97952.91
2018-03-17T18:01:22.332Z,97948.48
2018-03-17T18:03:52.162Z,97956.88
2018-03-17T18:06:22.185Z,97948.41
2018-03-17T18:08:51.294Z,97943.18
2018-03-17T18:11:20.886Z,97959.76
2018-03-17T18:13:50.983Z,97963.05
2018-03-17T18:16:21.199Z,97940.36
2018-03-17T18:18:51.021Z,97954.78
2018-03-17T18:21:19.400Z,97948.41
2018-03-17T18:23:47.787Z,97946.32
2018-03-17T18:26:16.958Z,97952.33
2018-03-17T18:28:46.926Z,97959.99
2018-03-17T18:31:16.092Z,97959.64
2018-03-17T18:33:45.338Z,97960.26
2018-03-17T18:36:14.066Z,97956.71
2018-03-17T18:38:42.453Z,97957.13
2018-03-17T18:41:12.748Z,97961.42
2018-03-17T18:43:41.747Z,97958.44
2018-03-17T18:46:12.438Z,97966.94
2018-03-17T18:48:40.826Z,97964.91
2018-03-17T18:51:12.303Z,97962.28
2018-03-17T18:53:43.843Z,97975.64
2018-03-17T18:56:12.211Z,97966.22
2018-03-17T18:58:40.591Z,97963.42
2018-03-17T19:01:10.641Z,97960.13
2018-03-17T19:03:39.003Z,97965.86
2018-03-17T19:06:08.580Z,97967.45
2018-03-17T19:08:37.408Z,97970.94
2018-03-17T19:11:08.571Z,97978.52
2018-03-17T19:13:38.960Z,97989.00
2018-03-17T19:16:07.582Z,97982.88
2018-03-17T19:18:37.950Z,97976.99
2018-03-17T19:21:07.469Z,97979.34
2018-03-17T19:23:36.389Z,97987.94
2018-03-17T19:26:05.994Z,97989.16
2018-03-17T19:28:35.513Z,97980.11
2018-03-17T19:31:04.737Z,97981.73
2018-03-17T19:33:33.361Z,97987.86
2018-03-17T19:36:02.443Z,97987.77
2018-03-17T19:38:32.479Z,97989.98
2018-03-17T19:41:01.424Z,97986.16
2018-03-17T19:43:30.611Z,97990.15
2018-03-17T19:45:59.752Z,97977.28
2018-03-17T19:48:28.866Z,97985.00
2018-03-17T19:50:57.488Z,97988.11
2018-03-17T19:53:26.895Z,97986.83
2018-03-17T19:55:57.113Z,97985.35
2018-03-17T19:58:26.798Z,97990.20
2018-03-17T20:00:56.054Z,97987.70
2018-03-17T20:03:26.223Z,97989.28
2018-03-17T20:05:55.051Z,97990.88
2018-03-17T20:08:23.434Z,97981.52
2018-03-17T20:10:53.639Z,97987.80
2018-03-17T20:13:22.861Z,97974.28
2018-03-17T20:15:51.261Z,97997.05
2018-03-17T20:18:21.019Z,97980.31
2018-03-17T20:20:50.900Z,97989.75
2018-03-17T20:23:19.512Z,97991.66
2018-03-17T20:25:48.784Z,97995.34
2018-03-17T20:28:17.219Z,97992.34
2018-03-17T20:30:47.708Z,98002.60
2018-03-17T20:33:16.875Z,98009.02
2018-03-17T20:35:46.455Z,98009.88
2018-03-17T20:38:16.436Z,98005.16
2018-03-17T20:40:47.062Z,98010.56
2018-03-17T20:43:19.090Z,98021.47
2018-03-17T20:45:47.580Z,98011.48
2018-03-17T20:48:15.932Z,98022.34
2018-03-17T20:50:45.050Z,98035.09
2018-03-17T20:53:15.057Z,98030.77
2018-03-17T20:55:44.666Z,98029.89
2018-03-17T20:58:13.130Z,98028.97
2018-03-17T21:00:42.259Z,98033.06
2018-03-17T21:03:12.803Z,98039.38
2018-03-17T21:05:42.216Z,98030.58
2018-03-17T21:08:11.558Z,98032.94
2018-03-17T21:10:40.970Z,98037.38
2018-03-17T21:13:10.130Z,98040.54
2018-03-17T21:15:38.609Z,98040.94
2018-03-17T21:18:06.991Z,98043.84
2018-03-17T21:20:36.454Z,98039.23
2018-03-17T21:23:06.810Z,98035.89
2018-03-17T21:25:38.124Z,98040.09
2018-03-17T21:28:07.341Z,98044.36
2018-03-17T21:30:38.694Z,98037.24
2018-03-17T21:33:07.178Z,98038.77
2018-03-17T21:35:35.945Z,98043.36
2018-03-17T21:38:04.301Z,98042.89
2018-03-17T21:40:33.715Z,98048.17
2018-03-17T21:43:06.888Z,98048.91
2018-03-17T21:45:35.838Z,98058.20
2018-03-17T21:48:05.184Z,98055.86
2018-03-17T21:50:36.119Z,98055.91
2018-03-17T21:53:05.223Z,98047.84
2018-03-17T21:55:35.529Z,98053.05
2018-03-17T21:58:04.179Z,98033.41
2018-03-17T22:00:33.740Z,98039.88
2018-03-17T22:03:02.595Z,98033.31
2018-03-17T22:05:32.695Z,98041.85
2018-03-17T22:08:02.788Z,98039.25
2018-03-17T22:10:31.922Z,98028.35
2018-03-17T22:13:02.566Z,98037.07
2018-03-17T22:15:30.927Z,98035.14
2018-03-17T22:17:59.350Z,98018.19
2018-03-17T22:20:28.575Z,98011.77
2018-03-17T22:22:56.997Z,98011.69
2018-03-17T22:25:26.226Z,98008.80
2018-03-17T22:27:58.054Z,97995.95
2018-03-17T22:30:28.036Z,98009.73
2018-03-17T22:32:56.418Z,98006.46
2018-03-17T22:35:24.909Z,98006.09
2018-03-17T22:37:54.589Z,97996.95
2018-03-17T22:40:23.221Z,98004.54
2018-03-17T22:42:52.511Z,97998.77
2018-03-17T22:45:23.674Z,98000.48
2018-03-17T22:47:54.589Z,98007.61
2018-03-17T22:50:23.545Z,97998.04
2018-03-17T22:52:51.991Z,97996.25
2018-03-17T22:55:22.432Z,97993.62
2018-03-17T22:57:51.839Z,97989.53
2018-03-17T23:00:20.426Z,97989.23
2018-03-17T23:02:52.062Z,97987.58
2018-03-17T23:05:20.559Z,97981.43
2018-03-17T23:07:49.261Z,97989.14
2018-03-17T23:10:19.303Z,97991.45
2018-03-17T23:12:47.880Z,97989.72
2018-03-17T23:15:18.630Z,97990.38
2018-03-17T23:17:48.259Z,97996.78
2018-03-17T23:20:16.940Z,97993.73
2018-03-17T23:22:46.641Z,97993.92
2018-03-17T23:25:17.063Z,97997.63
2018-03-17T23:27:46.115Z,97995.83
2018-03-17T23:30:14.547Z,97994.58
2018-03-17T23:32:43.328Z,97996.77
2018-03-17T23:35:12.364Z,97994.38
2018-03-17T23:37:40.726Z,97992.86
2018-03-17T23:40:12.944Z,97986.44
2018-03-17T23:42:41.660Z,97988.34
2018-03-17T23:45:10.687Z,97985.61
2018-03-17T23:47:40.690Z,97995.11
2018-03-17T23:50:10.218Z,98002.04
2018-03-17T23:52:40.883Z,97993.96
2018-03-17T23:55:09.363Z,97996.10
2018-03-17T23:57:38.357Z,98000.48
